Aktuální počasí v Česku a ve světě - METAR

Seznam meteostanic umístěných nejčasteji na letišti v ČR a ve světě

Vyhledat místa podle abecedy:
A B C D E F G H I J K L M N O P Q R S T U V W X Y Z

Filtrovat:

ID stanice:
a/nebo
Název místa (fulltext):
 
Místo (ID)Naposledy načteno 
Brno - Tuřany (Brno/Tu) 05.03.2024 13:00 UTC Zobrazit data
Místo: Brno - Tuřany
Teplota: 9 °C (pocitová: 4.7 °C)
Vítr: 3 m/s z(e) 260°
Počasí: déšť
Dohlednost: 6 km
Zákl. oblačnosti: 3/8 450 m;8/8 780 m
Vlhkost: 82%
Červená - Opava (Cervena/uL) 05.03.2024 07:00 UTC Zobrazit data
Místo: Červená - Opava
Teplota: 3 °C (pocitová: -4.3 °C)
Vítr: 4 m/s z(e) 20°
Počasí: mlha
Dohlednost: 900 m
Zákl. oblačnosti: 8/8 30 m
Vlhkost: 93%
České Budějovice (C.Budej/po) 05.03.2024 13:00 UTC Zobrazit data
Místo: České Budějovice
Teplota: 8 °C (pocitová: 4.4 °C)
Vítr: 2 m/s z(e) 350°
Počasí: skoro zataženo
Dohlednost: 11 km
Zákl. oblačnosti: 1/8 240 m;5/8 420 m
Vlhkost: 82%
Cheb (Cheb) 05.03.2024 13:00 UTC Zobrazit data
Místo: Cheb
Teplota: 8 °C (pocitová: 5.5 °C)
Vítr: 1 m/s z(e) 0°
Počasí: zataženo
Dohlednost: 6 km
Zákl. oblačnosti: 5/8 390 m;8/8 1290 m
Vlhkost: 87%
Chotusice - Čáslav (Caslav) 05.03.2024 13:00 UTC Zobrazit data
Místo: Chotusice - Čáslav
Teplota: 7 °C (pocitová: 4.3 °C)
Vítr: 1 m/s z(e) 190°
Počasí: zataženo
Dohlednost: 7 km
Zákl. oblačnosti: 4/8 300 m;8/8 600 m
Vlhkost: 87%
Churáňov (Churanov) 05.03.2024 13:00 UTC Zobrazit data
Místo: Churáňov
Teplota: 3 °C (pocitová: -3.3 °C)
Vítr: 3 m/s z(e) 260°
Počasí: déšť
Dohlednost: 12 km
Zákl. oblačnosti: 2/8 120 m;8/8 480 m
Vlhkost: 93%
Doksany - Litoměřice (Doksany) 05.03.2024 13:00 UTC Zobrazit data
Místo: Doksany - Litoměřice
Teplota: 8 °C (pocitová: 4.4 °C)
Vítr: 2 m/s z(e) 230°
Počasí: zataženo
Dohlednost: 15 km
Zákl. oblačnosti: 8/8 1140 m
Vlhkost: 76%
Dukovany (Dukovany) 05.03.2024 13:00 UTC Zobrazit data
Místo: Dukovany
Teplota: 7 °C (pocitová: 3.1 °C)
Vítr: 2 m/s z(e) 310°
Počasí: déšť
Dohlednost: 6 km
Zákl. oblačnosti: 7/8 330 m;8/8 1230 m
Vlhkost: 87%
Holešov (Holesov) 05.03.2024 13:00 UTC Zobrazit data
Místo: Holešov
Teplota: 10 °C (pocitová: 6 °C)
Vítr: 3 m/s z(e) 30°
Počasí: skoro zataženo
Dohlednost: 14 km
Zákl. oblačnosti: 6/8 900 m
Vlhkost: 67%
Kadaň - Tušimice (Tusimice) 05.03.2024 13:00 UTC Zobrazit data
Místo: Kadaň - Tušimice
Teplota: 6 °C (pocitová: 3.1 °C)
Vítr: 1 m/s z(e) 0°
Počasí: zataženo
Dohlednost: 7 km
Zákl. oblačnosti: 8/8 540 m
Vlhkost: 87%
Karlovy Vary (K.Vary) 05.03.2024 13:00 UTC Zobrazit data
Místo: Karlovy Vary
Teplota: 5 °C (pocitová: 1.8 °C)
Vítr: 1 m/s z(e) 100°
Počasí: déšť
Dohlednost: 4700 m
Zákl. oblačnosti: 3/8 90 m;5/8 180 m
Vlhkost: 100%
Kocelovice (Kocelovice) 05.03.2024 13:00 UTC Zobrazit data
Místo: Kocelovice
Teplota: 6 °C (pocitová: 3.1 °C)
Vítr: 1 m/s z(e) 0°
Počasí: déšť
Dohlednost: 8 km
Zákl. oblačnosti: 8/8 240 m
Vlhkost: 93%
Kopisty (Kopisty) 05.03.2024 12:00 UTC Zobrazit data
Místo: Kopisty
Teplota: 7 °C (pocitová: 4.3 °C)
Vítr: 1 m/s z(e) 290°
Počasí: déšť
Dohlednost: 10 km
Zákl. oblačnosti: 8/8 360 m
Vlhkost: 81%
Kostelní Myslová (K.Myslova) 05.03.2024 13:00 UTC Zobrazit data
Místo: Kostelní Myslová
Teplota: 6 °C (pocitová: 3.1 °C)
Vítr: 1 m/s z(e) 280°
Počasí: déšť
Dohlednost: 20 km
Zákl. oblačnosti: 3/8 300 m;8/8 540 m
Vlhkost: 93%
Křešín - Kramolín (Kramolin) 05.03.2024 13:00 UTC Zobrazit data
Místo: Křešín - Kramolín
Teplota: 5 °C (pocitová: 0.5 °C)
Vítr: 2 m/s z(e) 360°
Počasí: déšť
Dohlednost: 4200 m
Zákl. oblačnosti: 8/8 150 m
Vlhkost: 93%
Kuchařovice - Znojmo (Kucharovic) 05.03.2024 13:00 UTC Zobrazit data
Místo: Kuchařovice - Znojmo
Teplota: 8 °C (pocitová: 3.3 °C)
Vítr: 3 m/s z(e) 340°
Počasí: zataženo
Dohlednost: 7 km
Zákl. oblačnosti: 1/8 210 m;8/8 990 m
Vlhkost: 87%
Liberec (Liberec) 05.03.2024 13:00 UTC Zobrazit data
Místo: Liberec
Teplota: 7 °C (pocitová: 3.1 °C)
Vítr: 2 m/s z(e) 310°
Počasí: skoro zataženo
Dohlednost: 18 km
Zákl. oblačnosti: 6/8 780 m;3/8 2700 m
Vlhkost: 61%
Luká (Luka) 05.03.2024 13:00 UTC Zobrazit data
Místo: Luká
Teplota: 6 °C (pocitová: 3.1 °C)
Vítr: 1 m/s z(e) 0°
Počasí: zataženo
Dohlednost: 8 km
Zákl. oblačnosti: 8/8 210 m
Vlhkost: 87%
Lysá Hora (Lysa Hora) 04.03.2024 20:00 UTC Zobrazit data
Místo: Lysá Hora
Teplota: 3 °C (pocitová: -2.1 °C)
Vítr: 2 m/s z(e) 0°
Počasí: skoro zataženo
Dohlednost: 20 km
Zákl. oblačnosti: 6/8 300 m
Vlhkost: 93%
Milešovka (Milesovka) 05.03.2024 13:00 UTC Zobrazit data
Místo: Milešovka
Teplota: 3 °C (pocitová: 15 °C)
Vítr: 0 m/s z(e) 0°
Počasí: déšť
Dohlednost: 7 km
Zákl. oblačnosti: 5/8 150 m;8/8 480 m
Vlhkost: 100%
Mošnov (Ostrava/Mo) 05.03.2024 13:00 UTC Zobrazit data
Místo: Mošnov
Teplota: 8 °C (pocitová: 4.4 °C)
Vítr: 2 m/s z(e) 40°
Počasí: zataženo
Dohlednost: 12 km
Zákl. oblačnosti: 8/8 600 m
Vlhkost: 76%
Náměšť nad Oslavou (Namest n/O) 05.03.2024 13:00 UTC Zobrazit data
Místo: Náměšť nad Oslavou
Teplota: 6 °C (pocitová: 1.8 °C)
Vítr: 2 m/s z(e) 260°
Počasí: déšť
Dohlednost: 2500 m
Zákl. oblačnosti: 5/8 120 m;8/8 960 m
Vlhkost: 100%
Pardubice (Pardubice) 05.03.2024 13:00 UTC Zobrazit data
Místo: Pardubice
Teplota: 8 °C (pocitová: 4.4 °C)
Vítr: 2 m/s z(e) 260°
Počasí: zataženo
Dohlednost: 20 km
Zákl. oblačnosti: 2/8 510 m;6/8 900 m
Vlhkost: 76%
Pec pod Sněžkou (Pec p.Snez) 05.03.2024 13:00 UTC Zobrazit data
Místo: Pec pod Sněžkou
Teplota: 4 °C (pocitová: -0.8 °C)
Vítr: 2 m/s z(e) 170°
Počasí: zataženo
Dohlednost: 10 km
Zákl. oblačnosti: 8/8 270 m
Vlhkost: 81%
Plzeň město - Mikulka (Plzen/Miku) 05.03.2024 13:00 UTC Zobrazit data
Místo: Plzeň město - Mikulka
Teplota: 8 °C (pocitová: 5.5 °C)
Vítr: 1 m/s z(e) 0°
Počasí: zataženo
Dohlednost: 6 km
Zákl. oblačnosti: 8/8 330 m
Vlhkost: 87%
Polom (Polom) 05.03.2024 13:00 UTC Zobrazit data
Místo: Polom
Teplota: 4 °C (pocitová: -0.8 °C)
Vítr: 2 m/s z(e) 210°
Počasí: zataženo
Dohlednost: 15 km
Zákl. oblačnosti: 8/8 330 m
Vlhkost: 87%
Praha - Karlov (Praha/Kar) 05.03.2024 13:00 UTC Zobrazit data
Místo: Praha - Karlov
Teplota: 8 °C (pocitová: 5.5 °C)
Vítr: 1 m/s z(e) 230°
Počasí: zataženo
Dohlednost: 18 km
Zákl. oblačnosti: 8/8 1260 m
Vlhkost: 62%
Praha - Kbely (Praha/Kbe) 05.03.2024 13:00 UTC Zobrazit data
Místo: Praha - Kbely
Teplota: 7 °C (pocitová: 3.1 °C)
Vítr: 2 m/s z(e) 340°
Počasí: zataženo
Dohlednost: 10 km
Zákl. oblačnosti: 2/8 1020 m;8/8 1230 m
Vlhkost: 66%
Praha - Libuš (Praha/Lib) 05.03.2024 13:00 UTC Zobrazit data
Místo: Praha - Libuš
Teplota: 8 °C (pocitová: 5.5 °C)
Vítr: 1 m/s z(e) 280°
Počasí: zataženo
Dohlednost: 14 km
Zákl. oblačnosti: 8/8 1260 m
Vlhkost: 66%
Praha - Ruzyně (Praha/Ru) 05.03.2024 13:00 UTC Zobrazit data
Místo: Praha - Ruzyně
Teplota: 7 °C (pocitová: 4.3 °C)
Vítr: 1 m/s z(e) 10°
Počasí: zataženo
Dohlednost: 17 km
Zákl. oblačnosti: 8/8 1140 m
Vlhkost: 71%
Přibyslav (Pribyslav) 05.03.2024 13:00 UTC Zobrazit data
Místo: Přibyslav
Teplota: 5 °C (pocitová: 0.5 °C)
Vítr: 2 m/s z(e) 320°
Počasí: déšť
Dohlednost: 1400 m
Zákl. oblačnosti: 8/8 150 m
Vlhkost: 93%
Přimda (Primda) 05.03.2024 04:00 UTC Zobrazit data
Místo: Přimda
Teplota: 4 °C (pocitová: -2 °C)
Vítr: 3 m/s z(e) 280°
Počasí: mlha
Dohlednost: 100 m
Zákl. oblačnosti: 6/8 30 m;7/8 510 m
Vlhkost: 100%
Šerák (Serak) 04.03.2024 13:00 UTC Zobrazit data
Místo: Šerák
Teplota: 4 °C (pocitová: -0.8 °C)
Vítr: 2 m/s z(e) 0°
Počasí: skoro zataženo
Dohlednost: 4000 m
Zákl. oblačnosti: N/A
Vlhkost: 93%
Svratouch (Svratouch) 05.03.2024 13:00 UTC Zobrazit data
Místo: Svratouch
Teplota: 4 °C (pocitová: -0.8 °C)
Vítr: 2 m/s z(e) 350°
Počasí: déšť
Dohlednost: 4300 m
Zákl. oblačnosti: 7/8 120 m;8/8 420 m
Vlhkost: 93%
Temelín (Temelin) 05.03.2024 13:00 UTC Zobrazit data
Místo: Temelín
Teplota: 7 °C (pocitová: 4.3 °C)
Vítr: 1 m/s z(e) 40°
Počasí: déšť
Dohlednost: 11 km
Zákl. oblačnosti: 8/8 240 m
Vlhkost: 87%
Ústí nad Labem - Kočkov (Usti n/L) 05.03.2024 13:00 UTC Zobrazit data
Místo: Ústí nad Labem - Kočkov
Teplota: 6 °C (pocitová: 1.8 °C)
Vítr: 2 m/s z(e) 320°
Počasí: zataženo
Dohlednost: 12 km
Zákl. oblačnosti: 8/8 930 m
Vlhkost: 71%
Ústí nad Orlicí (Usti n/O) 05.03.2024 13:00 UTC Zobrazit data
Místo: Ústí nad Orlicí
Teplota: 6 °C (pocitová: 3.1 °C)
Vítr: 1 m/s z(e) 320°
Počasí: déšť
Dohlednost: 12 km
Zákl. oblačnosti: 6/8 330 m;8/8 780 m
Vlhkost: 87%
Aalborg (EKYT) 05.03.2024 12:50 UTC Zobrazit METAR
EKYT 051250Z AUTO 08016KT 9999 BKN024/// 04/M01 Q1025
Aarhus (EKAH) 05.03.2024 12:50 UTC Zobrazit METAR
EKAH 051250Z AUTO 07014KT 9999 OVC025/// 05/M01 Q1023
Abu Dhabi (OMAA) 05.03.2024 13:00 UTC Zobrazit METAR
OMAA 051300Z 32011KT 9999 FEW045 24/20 Q1012 NOSIG
Abuja (DNAA) 05.03.2024 13:00 UTC Zobrazit METAR
DNAA 051300Z 28008KT 9999 SCT015 35/23 Q1010 NOSIG
Accra (DGAA) 05.03.2024 13:00 UTC Zobrazit METAR
DGAA 051300Z 21015KT CAVOK 32/25 Q1010 NOSIG
Addis Abeba (HAAB) 05.03.2024 08:00 UTC Zobrazit METAR
HAAB 050800Z 11008KT 9999 BKN023 BKN080 19/11 Q1028 NOSIG
Agana (PGUM) 05.03.2024 12:54 UTC Zobrazit METAR
PGUM 051254Z 09010KT 10SM FEW015 FEW027 FEW035 27/23 A2991 RMK AO2 SLP119 T02720233
Ahe Island (NTHE) Zatím nenačteno  
Akureyri (BIAR) 05.03.2024 13:00 UTC Zobrazit METAR
BIAR 051300Z 13003G14KT 040V210 9999 SCT046 07/M01 Q1009
Almaty (UAAA) Zatím nenačteno  
Amman (OJAM) 05.03.2024 13:00 UTC Zobrazit METAR
OJAM 051300Z 24005KT 6000 NSC 20/02 Q1016 NOSIG
Amsterdam (EHAM) 05.03.2024 12:55 UTC Zobrazit METAR
EHAM 051255Z 20004KT 180V240 6000 SCT009 BKN045 08/06 Q1014 NOSIG
Antananarivo (FMMI) 05.03.2024 08:00 UTC Zobrazit METAR
FMMI 050800Z 07008KT 030V100 9999 -SHRA SCT017 BKN021 25/20 Q1021 NOSIG
1 2 3 ... 9 Další
Reklama

Krásné fotografie přírody - (nejen) tapety na pozadí do počítače

Článek
Fotogalerie jarních květin
13. dubna 2023 12:19
Článek
Fotografie slunečné zimní krajiny
7. prosince 2022 17:13
Článek
Obrázky na téma slunečno
25. srpna 2022 05:03
Článek
Obrázky květin
5. června 2022 12:12

Vyhledat
Přidejte si Počasí Slunečno na svůj Facebook
Facebook Počasí Slunečno.cz
Aplikace pro Windows 10/11 nebo chytré mobilní telefony
Stáhněte si aplikaci Slunečno.cz na Microsoft Store Stáhněte si aplikaci Slunečno.cz na Google Play